Terminal Aerodrome Forecast
Issued by NWS Charleston, WV

Current Version | Previous Version | Graphics & Text | Print | Product List | Glossary On
Versions: 1 2 3 4 5 6 7 8 9 10 11 12 13 14 15 16 17 18 19 20 21 22 23 24 25 26 27
000
FTUS41 KRLX 150234 AAA
TAFHTS
TAF AMD
KHTS 150234Z 1503/1524 33003KT 2SM BR OVC005
      TEMPO 1503/1506 1SM -DZ BR OVC003
     FM151300 36003KT 3SM BR OVC008
     FM151500 03004KT 5SM BR OVC015
     FM151700 04005KT P6SM BKN020
     FM151800 05005KT P6SM BKN035=

USA.gov is the U.S. government's official web portal to all federal, state and local government web resources and services.